createdAt,value
2023-07-31T00:00:51.572Z,15.90
2023-07-31T00:03:20.138Z,15.90
2023-07-31T00:05:48.782Z,15.90
2023-07-31T00:08:17.263Z,15.90
2023-07-31T00:10:45.804Z,15.90
2023-07-31T00:13:14.340Z,16.00
2023-07-31T00:15:44.428Z,16.00
2023-07-31T00:18:13.146Z,16.00
2023-07-31T00:20:41.992Z,16.00
2023-07-31T00:23:10.484Z,16.00
2023-07-31T00:25:39.081Z,16.00
2023-07-31T00:28:07.654Z,16.00
2023-07-31T00:30:37.555Z,16.00
2023-07-31T00:33:07.494Z,16.00
2023-07-31T00:35:36.132Z,16.00
2023-07-31T00:38:04.743Z,16.00
2023-07-31T00:40:38.404Z,16.00
2023-07-31T00:43:07.060Z,16.00
2023-07-31T00:45:35.987Z,16.10
2023-07-31T00:48:07.464Z,16.10
2023-07-31T00:50:37.243Z,16.10
2023-07-31T00:53:05.768Z,16.10
2023-07-31T00:55:34.225Z,16.10
2023-07-31T00:58:02.523Z,16.10
2023-07-31T01:00:31.010Z,16.10
2023-07-31T01:03:00.081Z,16.10
2023-07-31T01:05:36.141Z,16.00
2023-07-31T01:08:10.641Z,16.00
2023-07-31T01:10:47.559Z,16.00
2023-07-31T01:13:17.153Z,16.00
2023-07-31T01:15:45.559Z,15.90
2023-07-31T01:18:14.085Z,15.90
2023-07-31T01:20:45.427Z,15.90
2023-07-31T01:23:34.488Z,15.90
2023-07-31T01:26:09.273Z,15.80
2023-07-31T01:28:48.598Z,15.80
2023-07-31T01:31:22.315Z,15.80
2023-07-31T01:33:51.894Z,15.70
2023-07-31T01:36:20.455Z,15.70
2023-07-31T01:38:49.000Z,15.70
2023-07-31T01:41:20.805Z,15.60
2023-07-31T01:43:50.234Z,15.60
2023-07-31T01:46:18.730Z,15.60
2023-07-31T01:48:47.267Z,15.50
2023-07-31T01:51:15.781Z,15.50
2023-07-31T01:53:44.332Z,15.40
2023-07-31T01:56:12.832Z,15.40
2023-07-31T01:58:42.694Z,15.40
2023-07-31T02:01:11.224Z,15.30
2023-07-31T02:03:40.243Z,15.30
2023-07-31T02:06:08.894Z,15.30
2023-07-31T02:08:37.494Z,15.30
2023-07-31T02:11:06.207Z,15.20
2023-07-31T02:13:34.767Z,15.20
2023-07-31T02:16:04.765Z,15.10
2023-07-31T02:18:33.225Z,15.00
2023-07-31T02:21:01.943Z,15.00
2023-07-31T02:23:30.296Z,15.00
2023-07-31T02:25:58.624Z,15.00
2023-07-31T02:28:27.192Z,14.90
2023-07-31T02:30:55.561Z,14.90
2023-07-31T02:33:25.394Z,14.90
2023-07-31T02:35:53.764Z,14.90
2023-07-31T02:38:22.294Z,14.90
2023-07-31T02:40:50.638Z,14.90
2023-07-31T02:43:22.305Z,14.80
2023-07-31T02:45:55.020Z,14.80
2023-07-31T02:48:27.421Z,14.70
2023-07-31T02:50:59.381Z,14.70
2023-07-31T02:53:34.179Z,14.70
2023-07-31T02:56:03.063Z,14.70
2023-07-31T02:58:31.788Z,14.70
2023-07-31T03:01:01.512Z,14.70
2023-07-31T03:03:31.632Z,14.70
2023-07-31T03:06:00.271Z,14.70
2023-07-31T03:08:28.615Z,14.70
2023-07-31T03:10:57.129Z,14.70
2023-07-31T03:13:25.501Z,14.70
2023-07-31T03:15:53.909Z,14.70
2023-07-31T03:18:22.433Z,14.70
2023-07-31T03:20:52.279Z,14.70
2023-07-31T03:23:20.815Z,14.80
2023-07-31T03:25:59.598Z,14.90
2023-07-31T03:28:28.055Z,15.00
2023-07-31T03:30:56.535Z,15.10
2023-07-31T03:33:24.951Z,15.20
2023-07-31T03:35:55.001Z,15.30
2023-07-31T03:38:23.917Z,15.30
2023-07-31T03:40:52.312Z,15.40
2023-07-31T03:43:20.853Z,15.40
2023-07-31T03:45:49.363Z,15.50
2023-07-31T03:48:18.244Z,15.50
2023-07-31T03:50:46.568Z,15.60
2023-07-31T03:53:16.404Z,15.70
2023-07-31T03:55:44.930Z,15.70
2023-07-31T03:58:13.435Z,15.80
2023-07-31T04:00:42.946Z,15.80
2023-07-31T04:03:11.324Z,15.80
2023-07-31T04:05:42.037Z,15.90
2023-07-31T04:08:10.364Z,15.90
2023-07-31T04:10:40.176Z,15.90
2023-07-31T04:13:08.660Z,15.90
2023-07-31T04:15:37.100Z,16.00
2023-07-31T04:18:05.566Z,15.90
2023-07-31T04:20:34.086Z,15.90
2023-07-31T04:23:02.641Z,15.90
2023-07-31T04:25:30.954Z,15.90
2023-07-31T04:28:00.928Z,15.90
2023-07-31T04:30:29.521Z,15.90
2023-07-31T04:32:58.152Z,15.90
2023-07-31T04:35:26.708Z,15.90
2023-07-31T04:37:55.124Z,15.90
2023-07-31T04:40:23.942Z,15.90
2023-07-31T04:42:52.508Z,15.90
2023-07-31T04:45:22.307Z,15.90
2023-07-31T04:47:50.760Z,15.90
2023-07-31T04:50:19.310Z,15.90
2023-07-31T04:52:47.675Z,15.90
2023-07-31T04:55:16.307Z,15.90
2023-07-31T04:57:45.495Z,15.90
2023-07-31T05:00:14.414Z,16.00
2023-07-31T05:02:44.408Z,16.00
2023-07-31T05:05:13.015Z,16.00
2023-07-31T05:07:41.490Z,16.00
2023-07-31T05:10:10.735Z,16.00
2023-07-31T05:12:39.197Z,16.00
2023-07-31T05:15:08.628Z,16.00
2023-07-31T05:17:37.060Z,16.10
2023-07-31T05:20:08.211Z,16.10
2023-07-31T05:22:36.639Z,16.10
2023-07-31T05:25:05.213Z,16.10
2023-07-31T05:27:34.575Z,16.10
2023-07-31T05:30:03.306Z,16.10
2023-07-31T05:32:32.134Z,16.10
2023-07-31T05:35:01.160Z,16.10
2023-07-31T05:37:31.049Z,16.10
2023-07-31T05:39:59.543Z,16.10
2023-07-31T05:42:28.250Z,16.20
2023-07-31T05:44:56.920Z,16.20
2023-07-31T05:47:25.760Z,16.20
2023-07-31T05:49:54.533Z,16.20
2023-07-31T05:52:22.870Z,16.20
2023-07-31T05:54:56.093Z,16.20
2023-07-31T05:57:24.647Z,16.20
2023-07-31T05:59:54.596Z,16.20
2023-07-31T06:02:23.014Z,16.20
2023-07-31T06:04:51.654Z,16.30
2023-07-31T06:07:20.565Z,16.30
2023-07-31T06:09:48.972Z,16.30
2023-07-31T06:12:20.032Z,16.20
2023-07-31T06:14:48.450Z,16.30
2023-07-31T06:17:16.873Z,16.30
2023-07-31T06:19:45.243Z,16.30
2023-07-31T06:22:13.731Z,16.30
2023-07-31T06:24:42.142Z,16.30
2023-07-31T06:27:10.496Z,16.30
2023-07-31T06:29:40.436Z,16.40
2023-07-31T06:32:09.885Z,16.40
2023-07-31T06:34:38.326Z,16.40
2023-07-31T06:37:07.231Z,16.40
2023-07-31T06:39:35.753Z,16.40
2023-07-31T06:42:04.422Z,16.40
2023-07-31T06:44:33.020Z,16.40
2023-07-31T06:47:02.944Z,16.40
2023-07-31T06:49:31.340Z,16.40
2023-07-31T06:51:59.705Z,16.40
2023-07-31T06:54:28.180Z,16.40
2023-07-31T06:56:56.502Z,16.40
2023-07-31T06:59:24.853Z,16.50
2023-07-31T07:01:53.207Z,16.50
2023-07-31T07:04:22.933Z,16.50
2023-07-31T07:06:51.376Z,16.60
2023-07-31T07:09:19.746Z,16.60
2023-07-31T07:11:48.213Z,16.60
2023-07-31T07:14:16.742Z,16.70
2023-07-31T07:16:45.224Z,16.70
2023-07-31T07:19:13.651Z,16.80
2023-07-31T07:21:43.550Z,16.80
2023-07-31T07:24:11.877Z,16.70
2023-07-31T07:26:40.607Z,16.70
2023-07-31T07:29:09.404Z,16.70
2023-07-31T07:31:38.732Z,16.70
2023-07-31T07:34:07.207Z,16.80
2023-07-31T07:36:35.665Z,16.80
2023-07-31T07:39:05.570Z,16.80
2023-07-31T07:41:33.946Z,16.80
2023-07-31T07:44:02.338Z,16.90
2023-07-31T07:46:30.697Z,16.80
2023-07-31T07:48:59.307Z,16.80
2023-07-31T07:51:27.692Z,16.80
2023-07-31T07:53:56.220Z,16.70
2023-07-31T07:56:27.884Z,16.60
2023-07-31T07:58:56.880Z,16.60
2023-07-31T08:01:25.343Z,16.60
2023-07-31T08:03:53.866Z,16.60
2023-07-31T08:06:23.872Z,16.60
2023-07-31T08:08:52.678Z,16.60
2023-07-31T08:11:21.154Z,16.70
2023-07-31T08:13:51.009Z,16.70
2023-07-31T08:16:19.612Z,16.70
2023-07-31T08:18:48.182Z,16.70
2023-07-31T08:21:17.176Z,16.80
2023-07-31T08:23:45.620Z,16.80
2023-07-31T08:26:17.609Z,16.80
2023-07-31T08:28:46.092Z,16.90
2023-07-31T08:31:16.157Z,17.00
2023-07-31T08:33:44.741Z,17.10
2023-07-31T08:36:13.209Z,17.20
2023-07-31T08:38:41.677Z,17.20
2023-07-31T08:41:10.245Z,17.20
2023-07-31T08:43:40.093Z,17.30
2023-07-31T08:46:09.852Z,17.30
2023-07-31T08:48:40.366Z,17.30
2023-07-31T08:51:09.317Z,17.40
2023-07-31T08:53:37.931Z,17.40
2023-07-31T08:56:07.823Z,17.50
2023-07-31T08:58:38.376Z,17.50
2023-07-31T09:01:09.064Z,17.50
2023-07-31T09:03:39.907Z,17.40
2023-07-31T09:06:09.480Z,17.40
2023-07-31T09:08:39.957Z,17.40
2023-07-31T09:11:08.400Z,17.30
2023-07-31T09:13:36.979Z,17.20
2023-07-31T09:16:05.757Z,17.20
2023-07-31T09:18:34.345Z,17.30
2023-07-31T09:21:08.687Z,17.30
2023-07-31T09:23:44.486Z,17.30
2023-07-31T09:26:13.051Z,17.30
2023-07-31T09:28:41.854Z,17.40
2023-07-31T09:31:10.742Z,17.40
2023-07-31T09:33:57.476Z,17.40
2023-07-31T09:36:27.563Z,17.40
2023-07-31T09:38:56.094Z,17.40
2023-07-31T09:41:24.474Z,17.50
2023-07-31T09:43:56.949Z,17.50
2023-07-31T09:46:29.022Z,17.50
2023-07-31T09:49:10.417Z,17.60
2023-07-31T09:51:42.142Z,17.70
2023-07-31T09:54:14.373Z,17.80
2023-07-31T09:56:46.309Z,17.80
2023-07-31T09:59:17.088Z,17.80
2023-07-31T10:01:47.610Z,17.70
2023-07-31T10:04:29.001Z,17.70
2023-07-31T10:07:01.123Z,17.70
2023-07-31T10:09:33.740Z,17.70
2023-07-31T10:12:05.383Z,17.70
2023-07-31T10:14:34.409Z,17.60
2023-07-31T10:17:04.389Z,17.60
2023-07-31T10:19:33.845Z,17.50
2023-07-31T10:22:08.106Z,17.50
2023-07-31T10:24:37.530Z,17.40
2023-07-31T10:27:09.854Z,17.40
2023-07-31T10:29:39.375Z,17.30
2023-07-31T10:32:11.538Z,17.30
2023-07-31T10:34:41.744Z,17.40
2023-07-31T10:37:25.905Z,17.40
2023-07-31T10:40:02.244Z,17.50
2023-07-31T10:42:36.090Z,17.50
2023-07-31T10:45:06.842Z,17.50
2023-07-31T10:47:41.030Z,17.50
2023-07-31T10:50:18.700Z,17.40
2023-07-31T10:52:50.539Z,17.40
2023-07-31T10:55:30.378Z,17.40
2023-07-31T10:58:00.259Z,17.50
2023-07-31T11:00:30.494Z,17.50
2023-07-31T11:03:03.882Z,17.50
2023-07-31T11:05:47.117Z,17.50
2023-07-31T11:08:18.710Z,17.50
2023-07-31T11:10:48.571Z,17.50
2023-07-31T11:13:17.375Z,17.50
2023-07-31T11:15:45.826Z,17.50
2023-07-31T11:18:14.328Z,17.50
2023-07-31T11:20:42.840Z,17.60
2023-07-31T11:23:12.350Z,17.60
2023-07-31T11:25:43.131Z,17.70
2023-07-31T11:28:13.452Z,17.70
2023-07-31T11:30:42.935Z,17.70
2023-07-31T11:33:12.726Z,17.70
2023-07-31T11:35:46.529Z,17.70
2023-07-31T11:38:23.200Z,17.80
2023-07-31T11:40:53.685Z,17.80
2023-07-31T11:43:22.923Z,17.80
2023-07-31T11:45:53.295Z,17.80
2023-07-31T11:48:23.241Z,17.80
2023-07-31T11:50:53.317Z,17.90
2023-07-31T11:53:25.463Z,17.90
2023-07-31T11:55:56.067Z,17.90
2023-07-31T11:58:25.334Z,17.90
2023-07-31T12:00:54.901Z,17.90
2023-07-31T12:03:23.503Z,17.80
2023-07-31T12:05:51.921Z,17.90
2023-07-31T12:08:23.989Z,18.00
2023-07-31T12:10:54.859Z,18.00
2023-07-31T12:13:25.010Z,18.00
2023-07-31T12:15:57.621Z,18.20
2023-07-31T12:18:27.941Z,18.40
2023-07-31T12:20:57.850Z,18.40
2023-07-31T12:23:29.940Z,18.30
2023-07-31T12:26:07.106Z,18.30
2023-07-31T12:28:39.654Z,18.20
2023-07-31T12:31:09.445Z,18.20
2023-07-31T12:33:39.846Z,18.20
2023-07-31T12:36:11.740Z,18.20
2023-07-31T12:38:44.113Z,18.20
2023-07-31T12:41:14.162Z,18.20
2023-07-31T12:43:44.404Z,18.30
2023-07-31T12:46:14.006Z,18.20
2023-07-31T12:48:42.610Z,18.20
2023-07-31T12:51:11.134Z,18.10
2023-07-31T12:53:39.515Z,18.00
2023-07-31T12:56:08.101Z,17.90
2023-07-31T12:58:38.113Z,17.90
2023-07-31T13:01:08.352Z,17.90
2023-07-31T13:03:36.943Z,17.80
2023-07-31T13:06:06.773Z,17.80
2023-07-31T13:08:35.205Z,17.90
2023-07-31T13:11:03.709Z,18.10
2023-07-31T13:13:33.321Z,18.30
2023-07-31T13:16:03.314Z,18.50
2023-07-31T13:18:32.394Z,18.50
2023-07-31T13:21:00.901Z,18.80
2023-07-31T13:23:29.697Z,19.00
2023-07-31T13:25:58.191Z,19.10
2023-07-31T13:28:29.531Z,19.20
2023-07-31T13:30:58.455Z,19.30
2023-07-31T13:33:36.876Z,19.50
2023-07-31T13:36:06.280Z,19.60
2023-07-31T13:38:34.798Z,19.40
2023-07-31T13:41:03.892Z,19.40
2023-07-31T13:43:32.445Z,19.30
2023-07-31T13:46:05.400Z,19.20
2023-07-31T13:48:36.580Z,19.30
2023-07-31T13:51:05.076Z,19.30
2023-07-31T13:53:33.970Z,19.40
2023-07-31T13:56:02.645Z,19.40
2023-07-31T13:58:31.282Z,19.40
2023-07-31T14:00:59.857Z,19.50
2023-07-31T14:03:28.379Z,19.50
2023-07-31T14:05:58.553Z,19.50
2023-07-31T14:08:27.023Z,19.40
2023-07-31T14:10:55.866Z,19.40
2023-07-31T14:13:24.550Z,19.30
2023-07-31T14:15:53.259Z,19.20
2023-07-31T14:18:22.045Z,19.20
2023-07-31T14:20:50.614Z,19.20
2023-07-31T14:23:22.057Z,19.20
2023-07-31T14:25:51.125Z,19.10
2023-07-31T14:28:20.154Z,19.10
2023-07-31T14:30:48.918Z,19.10
2023-07-31T14:33:17.506Z,19.10
2023-07-31T14:35:46.091Z,19.20
2023-07-31T14:38:14.507Z,19.20
2023-07-31T14:40:45.873Z,19.10
2023-07-31T14:43:14.404Z,19.10
2023-07-31T14:45:42.952Z,19.00
2023-07-31T14:48:11.397Z,19.10
2023-07-31T14:50:40.108Z,19.10
2023-07-31T14:53:08.533Z,19.10
2023-07-31T14:55:37.026Z,19.00
2023-07-31T14:58:07.234Z,19.00
2023-07-31T15:00:35.978Z,19.10
2023-07-31T15:03:05.804Z,19.30
2023-07-31T15:05:34.434Z,19.30
2023-07-31T15:08:03.115Z,19.40
2023-07-31T15:10:31.703Z,19.30
2023-07-31T15:13:00.337Z,19.30
2023-07-31T15:15:30.222Z,19.40
2023-07-31T15:17:58.767Z,19.40
2023-07-31T15:20:27.453Z,19.40
2023-07-31T15:22:56.043Z,19.40
2023-07-31T15:25:24.454Z,19.50
2023-07-31T15:27:52.847Z,19.50
2023-07-31T15:30:21.652Z,19.60
2023-07-31T15:32:51.979Z,19.50
2023-07-31T15:35:22.647Z,19.40
2023-07-31T15:37:51.257Z,19.30
2023-07-31T15:40:19.820Z,19.30
2023-07-31T15:42:48.656Z,19.20
2023-07-31T15:45:17.036Z,19.20
2023-07-31T15:47:45.616Z,19.20
2023-07-31T15:50:15.610Z,19.20
2023-07-31T15:52:44.102Z,19.20
2023-07-31T15:55:13.135Z,19.10
2023-07-31T15:57:41.694Z,19.00
2023-07-31T16:00:11.725Z,18.90
2023-07-31T16:02:40.632Z,18.90
2023-07-31T16:05:09.423Z,18.80
2023-07-31T16:07:39.486Z,18.80
2023-07-31T16:10:09.586Z,18.70
2023-07-31T16:12:38.118Z,18.70
2023-07-31T16:15:07.450Z,18.70
2023-07-31T16:17:36.093Z,18.70
2023-07-31T16:20:05.066Z,18.70
2023-07-31T16:22:33.616Z,18.70
2023-07-31T16:25:03.602Z,18.80
2023-07-31T16:27:32.102Z,18.80
2023-07-31T16:30:01.453Z,18.90
2023-07-31T16:32:30.413Z,18.90
2023-07-31T16:34:59.507Z,18.90
2023-07-31T16:37:28.220Z,18.90
2023-07-31T16:39:57.032Z,18.90
2023-07-31T16:42:28.204Z,19.00
2023-07-31T16:44:56.791Z,19.00
2023-07-31T16:47:25.385Z,19.00
2023-07-31T16:49:54.057Z,19.00
2023-07-31T16:52:22.549Z,18.90
2023-07-31T16:54:51.483Z,18.80
2023-07-31T16:57:20.904Z,18.80
2023-07-31T16:59:51.227Z,18.70
2023-07-31T17:02:20.138Z,18.70
2023-07-31T17:04:48.885Z,18.70
2023-07-31T17:07:19.089Z,18.70
2023-07-31T17:09:47.456Z,18.60
2023-07-31T17:12:15.879Z,18.60
2023-07-31T17:14:44.529Z,18.60
2023-07-31T17:17:14.408Z,18.50
2023-07-31T17:19:42.962Z,18.50
2023-07-31T17:22:11.456Z,18.50
2023-07-31T17:24:39.760Z,18.50
2023-07-31T17:27:08.220Z,18.50
2023-07-31T17:29:36.801Z,18.50
2023-07-31T17:34:36.396Z,18.40
2023-07-31T17:37:05.181Z,18.40
2023-07-31T17:39:33.751Z,18.30
2023-07-31T17:42:02.168Z,18.30
2023-07-31T17:44:31.137Z,18.20
2023-07-31T17:47:00.255Z,18.20
2023-07-31T17:49:29.161Z,18.20
2023-07-31T17:51:59.119Z,18.10
2023-07-31T17:54:28.760Z,18.10
2023-07-31T17:56:57.669Z,18.10
2023-07-31T17:59:26.101Z,18.00
2023-07-31T18:01:54.668Z,18.00
2023-07-31T18:04:23.414Z,18.00
2023-07-31T18:06:53.134Z,18.00
2023-07-31T18:09:23.154Z,17.90
2023-07-31T18:11:51.902Z,17.90
2023-07-31T18:14:22.765Z,17.90
2023-07-31T18:16:51.648Z,17.90
2023-07-31T18:19:20.191Z,17.80
2023-07-31T18:21:48.836Z,17.80
2023-07-31T18:24:17.179Z,17.80
2023-07-31T18:26:47.184Z,17.80
2023-07-31T18:29:15.584Z,17.80
2023-07-31T18:31:44.045Z,17.80
2023-07-31T18:34:13.684Z,17.80
2023-07-31T18:36:43.468Z,17.80
2023-07-31T18:39:12.035Z,17.80
2023-07-31T18:41:41.782Z,17.80
2023-07-31T18:44:12.084Z,17.80
2023-07-31T18:46:40.961Z,17.80
2023-07-31T18:49:09.900Z,17.70
2023-07-31T18:51:39.755Z,17.70
2023-07-31T18:54:08.461Z,17.70
2023-07-31T18:56:37.503Z,17.70
2023-07-31T18:59:06.477Z,17.70
2023-07-31T19:01:36.644Z,17.70
2023-07-31T19:04:05.774Z,17.70
2023-07-31T19:06:36.217Z,17.70
2023-07-31T19:09:05.477Z,17.60
2023-07-31T19:11:34.494Z,17.60
2023-07-31T19:14:03.881Z,17.60
2023-07-31T19:16:32.651Z,17.60
2023-07-31T19:19:02.507Z,17.50
2023-07-31T19:21:31.050Z,17.50
2023-07-31T19:23:59.718Z,17.50
2023-07-31T19:26:28.338Z,17.40
2023-07-31T19:28:57.114Z,17.40
2023-07-31T19:31:25.982Z,17.40
2023-07-31T19:33:54.552Z,17.40
2023-07-31T19:36:24.621Z,17.40
2023-07-31T19:38:53.228Z,17.30
2023-07-31T19:41:21.660Z,17.30
2023-07-31T19:43:50.486Z,17.30
2023-07-31T19:46:19.010Z,17.30
2023-07-31T19:48:47.770Z,17.30
2023-07-31T19:51:16.556Z,17.20
2023-07-31T19:53:46.376Z,17.20
2023-07-31T19:56:15.090Z,17.20
2023-07-31T19:58:43.928Z,17.20
2023-07-31T20:01:12.774Z,17.20
2023-07-31T20:03:41.581Z,17.20
2023-07-31T20:06:10.180Z,17.20
2023-07-31T20:08:38.720Z,17.20
2023-07-31T20:11:10.181Z,17.10
2023-07-31T20:13:39.337Z,17.10
2023-07-31T20:16:09.667Z,17.10
2023-07-31T20:18:41.850Z,17.10
2023-07-31T20:21:10.705Z,17.10
2023-07-31T20:23:43.499Z,17.10
2023-07-31T20:26:13.779Z,17.00
2023-07-31T20:28:42.461Z,17.00
2023-07-31T20:31:11.138Z,17.00
2023-07-31T20:33:39.658Z,17.00
2023-07-31T20:36:08.773Z,17.00
2023-07-31T20:38:37.445Z,17.00
2023-07-31T20:41:06.393Z,17.00
2023-07-31T20:43:36.834Z,17.00
2023-07-31T20:46:05.725Z,17.00
2023-07-31T20:48:35.382Z,17.00
2023-07-31T20:51:04.310Z,17.00
2023-07-31T20:53:33.025Z,17.00
2023-07-31T20:56:03.496Z,17.00
2023-07-31T20:58:32.254Z,17.00
2023-07-31T21:01:02.142Z,17.00
2023-07-31T21:03:31.902Z,16.90
2023-07-31T21:06:01.370Z,16.90
2023-07-31T21:08:29.848Z,16.90
2023-07-31T21:10:58.912Z,16.90
2023-07-31T21:13:27.769Z,16.90
2023-07-31T21:16:01.815Z,16.80
2023-07-31T21:18:30.240Z,16.80
2023-07-31T21:20:58.654Z,16.80
2023-07-31T21:23:27.091Z,16.80
2023-07-31T21:25:55.579Z,16.80
2023-07-31T21:28:24.201Z,16.80
2023-07-31T21:30:52.818Z,16.80
2023-07-31T21:33:25.240Z,16.90
2023-07-31T21:35:53.822Z,16.90
2023-07-31T21:38:22.233Z,16.90
2023-07-31T21:40:51.610Z,16.90
2023-07-31T21:43:20.055Z,16.90
2023-07-31T21:45:48.619Z,16.90
2023-07-31T21:48:17.219Z,16.90
2023-07-31T21:50:47.170Z,16.90
2023-07-31T21:53:15.676Z,16.90
2023-07-31T21:55:44.199Z,16.90
2023-07-31T21:58:12.695Z,16.90
2023-07-31T22:00:41.219Z,16.90
2023-07-31T22:03:09.696Z,17.00
2023-07-31T22:05:38.417Z,17.00
2023-07-31T22:08:08.815Z,17.00
2023-07-31T22:10:37.725Z,17.00
2023-07-31T22:13:06.402Z,17.00
2023-07-31T22:15:34.893Z,17.00
2023-07-31T22:18:04.740Z,17.00
2023-07-31T22:20:33.429Z,17.00
2023-07-31T22:23:01.922Z,17.00
2023-07-31T22:25:32.181Z,17.00
2023-07-31T22:28:14.620Z,17.00
2023-07-31T22:30:49.182Z,17.00
2023-07-31T22:33:17.674Z,17.00
2023-07-31T22:35:46.231Z,17.00
2023-07-31T22:38:14.711Z,17.00
2023-07-31T22:40:44.650Z,17.00
2023-07-31T22:43:13.796Z,17.00
2023-07-31T22:45:47.378Z,17.00
2023-07-31T22:48:16.224Z,17.00
2023-07-31T22:50:44.672Z,17.00
2023-07-31T22:53:13.055Z,16.90
2023-07-31T22:55:41.393Z,16.90
2023-07-31T22:58:11.224Z,16.90
2023-07-31T23:00:39.784Z,16.90
2023-07-31T23:03:08.234Z,16.90
2023-07-31T23:05:36.850Z,16.90
2023-07-31T23:08:05.563Z,16.90
2023-07-31T23:10:35.019Z,16.90
2023-07-31T23:13:03.525Z,16.90
2023-07-31T23:15:33.497Z,16.90
2023-07-31T23:18:02.051Z,17.00
2023-07-31T23:20:30.456Z,17.00
2023-07-31T23:22:58.753Z,17.00
2023-07-31T23:25:27.118Z,17.00
2023-07-31T23:27:55.439Z,17.00
2023-07-31T23:30:24.000Z,17.00
2023-07-31T23:32:53.875Z,17.00
2023-07-31T23:35:22.303Z,17.00
2023-07-31T23:37:50.814Z,17.00
2023-07-31T23:40:19.287Z,17.00
2023-07-31T23:42:48.756Z,17.00
2023-07-31T23:45:17.535Z,17.00
2023-07-31T23:47:46.124Z,16.90
2023-07-31T23:50:16.072Z,16.90
2023-07-31T23:52:46.048Z,16.80
2023-07-31T23:55:14.713Z,16.80
2023-07-31T23:57:44.122Z,16.80
